Time;durP1;ratioP1;P1;durP2;ratioP2;P2;SDS_P1;SDS_P2;PMS_P1;PMS_P2;Temp;Humidity;BMP_temperature;BMP_pressure;BME280_temperature;BME280_humidity;BME280_pressure;Samples;Min_cycle;Max_cycle;Signal;HPM_P1;HPM_P2
2023/05/14 00:02:12;;;;;;;;;46.00;36.33;;;;;13.07;78.02;101837.94;5036293;28;45468;-67
2023/05/14 00:04:38;;;;;;;;;46.67;37.00;;;;;13.09;77.96;101832.63;5036444;28;45235;-67
2023/05/14 00:07:03;;;;;;;;;49.33;39.33;;;;;13.04;77.68;101832.69;5036332;28;45314;-67
2023/05/14 00:09:29;;;;;;;;;48.00;38.00;;;;;12.99;78.88;101818.66;5036593;28;45230;-67
2023/05/14 00:11:55;;;;;;;;;40.67;30.33;;;;;13.09;77.75;101834.41;5035213;28;45378;-67
2023/05/14 00:14:20;;;;;;;;;46.33;38.33;;;;;13.06;77.87;101833.53;5035920;28;45301;-67
2023/05/14 00:16:45;;;;;;;;;37.67;32.33;;;;;13.10;77.85;101839.66;5036266;28;45405;-67
2023/05/14 00:19:11;;;;;;;;;39.67;31.33;;;;;13.10;78.57;101834.38;5036321;28;45367;-67
2023/05/14 00:21:36;;;;;;;;;45.33;36.00;;;;;12.99;77.51;101815.16;5036197;28;46113;-67
2023/05/14 00:24:01;;;;;;;;;49.33;36.33;;;;;12.98;77.83;101822.22;5034909;28;45477;-68
2023/05/14 00:26:27;;;;;;;;;46.67;36.67;;;;;12.88;78.46;101812.66;5036259;27;45447;-67
2023/05/14 00:28:52;;;;;;;;;45.33;39.33;;;;;12.93;78.87;101826.69;5036293;28;45295;-67
2023/05/14 00:31:18;;;;;;;;;43.67;36.00;;;;;12.88;78.36;101816.19;5035582;28;46832;-67
2023/05/14 00:33:43;;;;;;;;;47.00;37.00;;;;;12.87;78.07;101824.16;5035986;28;45309;-67
2023/05/14 00:36:08;;;;;;;;;48.00;35.67;;;;;12.85;78.87;101813.59;5035607;28;45275;-66
2023/05/14 00:38:34;;;;;;;;;50.00;37.00;;;;;12.83;78.45;101814.53;5036084;28;45418;-67
2023/05/14 00:40:59;;;;;;;;;45.67;37.00;;;;;12.77;79.27;101806.69;5035915;28;46325;-67
2023/05/14 00:43:24;;;;;;;;;46.00;37.67;;;;;12.77;79.49;101804.91;5035614;28;45398;-66
2023/05/14 00:45:52;;;;;;;;;53.00;37.00;;;;;12.81;79.03;101809.25;5034607;28;45367;-67
2023/05/14 00:48:19;;;;;;;;;48.33;38.00;;;;;12.78;79.54;101798.75;5030735;28;45431;-67
2023/05/14 00:50:45;;;;;;;;;51.33;39.67;;;;;12.80;78.99;101804.84;5035629;28;45479;-68
2023/05/14 00:53:11;;;;;;;;;47.33;39.33;;;;;12.85;78.97;101808.31;5035671;28;45398;-67
2023/05/14 00:55:37;;;;;;;;;47.33;39.67;;;;;12.83;79.39;101798.66;5035597;28;45349;-67
2023/05/14 00:58:10;;;;;;;;;49.00;40.00;;;;;12.78;78.63;101793.44;5035995;28;45447;-67
2023/05/14 01:00:38;;;;;;;;;46.00;36.33;;;;;12.82;79.33;101808.38;5035409;28;46112;-67
2023/05/14 01:03:05;;;;;;;;;47.67;38.33;;;;;12.80;79.14;101807.50;5035432;28;45303;-67
2023/05/14 01:05:45;;;;;;;;;49.33;36.67;;;;;12.79;78.58;101807.53;5035855;28;45322;-67
2023/05/14 01:08:33;;;;;;;;;50.67;39.67;;;;;12.74;78.87;101789.09;5035691;28;45505;-67
2023/05/14 01:11:16;;;;;;;;;48.67;39.67;;;;;12.81;79.78;101805.72;5035269;28;45481;-67
2023/05/14 01:13:46;;;;;;;;;48.33;37.33;;;;;12.81;78.72;101808.38;5033500;28;45407;-66
2023/05/14 01:16:13;;;;;;;;;46.33;36.67;;;;;12.74;79.56;101799.66;5021818;28;45214;-67
2023/05/14 01:18:40;;;;;;;;;43.00;35.33;;;;;12.76;79.74;101799.66;5035656;28;45693;-67
2023/05/14 01:21:22;;;;;;;;;46.33;36.00;;;;;12.81;79.33;101808.38;5035150;28;46408;-67
2023/05/14 01:23:48;;;;;;;;;46.00;37.00;;;;;12.76;79.11;101789.94;5035161;28;45314;-67
2023/05/14 01:26:13;;;;;;;;;47.00;36.33;;;;;12.79;79.71;101791.66;5035232;28;45303;-67
2023/05/14 01:28:39;;;;;;;;;46.67;38.67;;;;;12.82;79.37;101786.34;5035676;28;45452;-67
2023/05/14 01:31:15;;;;;;;;;44.00;36.33;;;;;12.79;79.04;101791.66;5034856;28;46336;-67
2023/05/14 01:33:42;;;;;;;;;46.00;37.33;;;;;12.79;79.64;101789.03;5035240;28;45246;-67
2023/05/14 01:36:08;;;;;;;;;42.33;36.67;;;;;12.82;78.91;101786.34;5035279;28;45381;-67
2023/05/14 01:38:35;;;;;;;;;52.00;41.33;;;;;12.73;79.70;101773.28;5035292;28;45238;-67
2023/05/14 01:41:02;;;;;;;;;48.00;39.33;;;;;12.83;79.77;101786.31;5035069;28;46292;-67
2023/05/14 01:43:28;;;;;;;;;57.33;44.00;;;;;12.78;79.56;101790.81;5034829;28;45363;-67
2023/05/14 01:45:54;;;;;;;;;50.33;40.00;;;;;12.79;80.07;101795.16;5034837;28;45283;-67
2023/05/14 01:48:20;;;;;;;;;47.00;37.00;;;;;12.75;80.53;101790.84;5034260;28;45313;-67
2023/05/14 01:50:45;;;;;;;;;50.33;41.00;;;;;12.75;80.05;101788.22;5033599;28;47634;-67
2023/05/14 01:53:10;;;;;;;;;53.33;44.00;;;;;12.79;80.04;101794.31;5035103;28;45378;-67
2023/05/14 01:55:36;;;;;;;;;53.33;40.00;;;;;12.84;80.04;101792.50;5034800;28;45460;-67
2023/05/14 01:58:01;;;;;;;;;52.67;42.33;;;;;12.81;80.46;101785.47;5035203;28;45335;-67
2023/05/14 02:00:26;;;;;;;;;53.67;41.67;;;;;12.83;80.20;101794.22;5034719;28;46378;-67
2023/05/14 02:02:52;;;;;;;;;50.00;40.00;;;;;12.88;80.21;101799.44;5034799;28;45586;-67
2023/05/14 02:05:17;;;;;;;;;46.00;37.00;;;;;12.89;79.85;101801.19;5035142;28;45373;-67
2023/05/14 02:07:43;;;;;;;;;44.33;37.00;;;;;12.88;79.50;101800.34;5034743;28;45381;-67
2023/05/14 02:10:09;;;;;;;;;55.33;42.67;;;;;12.88;80.20;101797.69;5034619;28;46487;-67
2023/05/14 02:12:34;;;;;;;;;53.00;42.00;;;;;12.88;80.28;101794.16;5034827;28;45351;-67
2023/05/14 02:15:02;;;;;;;;;51.67;40.33;;;;;12.89;80.34;101785.34;5034487;28;45296;-67
2023/05/14 02:17:28;;;;;;;;;51.67;41.67;;;;;12.90;80.03;101784.44;5035012;28;45298;-67
2023/05/14 02:19:53;;;;;;;;;54.33;43.00;;;;;12.68;79.91;101731.94;5034340;28;46298;-67
2023/05/14 02:22:18;;;;;;;;;49.00;39.33;;;;;12.93;80.22;101770.31;5034592;28;45238;-67
2023/05/14 02:24:44;;;;;;;;;53.33;42.00;;;;;12.73;80.15;101742.41;5034667;28;45324;-67
2023/05/14 02:27:11;;;;;;;;;51.33;41.33;;;;;12.69;79.99;101731.03;5034762;28;45208;-67
2023/05/14 02:29:36;;;;;;;;;52.33;43.00;;;;;12.88;80.68;101760.69;5034385;28;46569;-67
2023/05/14 02:32:02;;;;;;;;;44.00;37.33;;;;;12.93;80.18;101757.97;5033976;28;45502;-66
2023/05/14 02:34:27;;;;;;;;;53.00;42.33;;;;;12.75;80.23;101721.25;5033584;28;45424;-67
2023/05/14 02:36:53;;;;;;;;;59.00;45.00;;;;;12.97;80.36;101766.69;5034757;27;45324;-67
2023/05/14 02:39:18;;;;;;;;;56.33;45.00;;;;;12.95;80.27;101756.16;5034306;27;45381;-67
2023/05/14 02:41:43;;;;;;;;;58.33;45.33;;;;;12.97;80.36;101761.41;5034461;27;45343;-66
2023/05/14 02:44:09;;;;;;;;;58.00;43.00;;;;;12.96;80.33;101760.56;5034285;28;45741;-67
2023/05/14 02:46:34;;;;;;;;;58.00;44.00;;;;;12.89;80.21;101750.97;5033954;28;45500;-66
2023/05/14 02:48:59;;;;;;;;;57.00;44.33;;;;;12.86;80.08;101740.47;5033223;28;46324;-67
2023/05/14 02:51:25;;;;;;;;;60.67;46.00;;;;;12.82;80.30;101734.38;5034274;27;45608;-67
2023/05/14 02:53:51;;;;;;;;;56.00;44.67;;;;;12.86;80.34;101743.97;5034384;28;45308;-67
2023/05/14 02:56:16;;;;;;;;;57.00;43.00;;;;;12.58;79.88;101701.25;5034266;27;45218;-67
2023/05/14 02:58:41;;;;;;;;;55.33;43.67;;;;;12.81;80.84;101737.91;5035239;28;46157;-67
2023/05/14 03:01:07;;;;;;;;;56.00;45.33;;;;;12.71;80.86;101729.22;5037049;28;45178;-66
2023/05/14 03:03:34;;;;;;;;;51.33;41.33;;;;;12.76;80.49;101737.09;5037175;28;45239;-66
2023/05/14 03:05:59;;;;;;;;;57.67;44.33;;;;;12.57;81.54;101707.44;5037243;28;45465;-67
2023/05/14 03:08:25;;;;;;;;;54.67;42.67;;;;;12.77;80.87;101740.63;5030206;28;45434;-66
2023/05/14 03:10:50;;;;;;;;;52.67;43.67;;;;;12.73;80.95;101731.84;5025914;28;45383;-66
2023/05/14 03:13:18;;;;;;;;;53.67;43.67;;;;;12.76;80.98;101744.16;5025297;28;45521;-66
2023/05/14 03:15:45;;;;;;;;;54.00;43.33;;;;;12.77;81.13;101745.91;5037045;27;45355;-66
2023/05/14 03:18:11;;;;;;;;;52.67;43.00;;;;;12.77;81.13;101746.75;5036786;28;46333;-66
2023/05/14 03:20:36;;;;;;;;;59.33;45.33;;;;;12.75;81.28;101742.38;5036602;28;45352;-66
2023/05/14 03:23:01;;;;;;;;;58.00;43.00;;;;;12.60;81.54;101720.59;5036818;28;45279;-66
2023/05/14 03:25:27;;;;;;;;;60.33;47.00;;;;;12.64;81.52;101717.00;5037317;27;45378;-67
2023/05/14 03:27:52;;;;;;;;;53.00;44.33;;;;;12.79;81.46;101741.44;5036147;27;45413;-67
2023/05/14 03:30:17;;;;;;;;;53.67;44.67;;;;;12.78;81.56;101747.63;5036851;28;45220;-66
2023/05/14 03:32:44;;;;;;;;;57.33;41.67;;;;;12.77;81.41;101744.13;5018772;28;45402;-67
2023/05/14 03:35:09;;;;;;;;;57.67;42.67;;;;;12.82;81.59;101747.59;5037093;28;45318;-67
2023/05/14 03:37:35;;;;;;;;;53.67;43.00;;;;;12.80;81.36;101744.06;5036564;28;45988;-67
2023/05/14 03:40:00;;;;;;;;;59.00;45.00;;;;;12.77;81.34;101738.84;5036643;28;45468;-67
2023/05/14 03:42:26;;;;;;;;;61.33;46.00;;;;;12.75;81.20;101730.06;5036901;28;45245;-67
2023/05/14 03:44:51;;;;;;;;;55.67;43.67;;;;;12.75;81.22;101738.00;5036714;27;45337;-67
2023/05/14 03:47:16;;;;;;;;;52.67;43.33;;;;;12.77;81.26;101745.91;5036320;28;46101;-66
2023/05/14 03:49:42;;;;;;;;;59.00;46.67;;;;;12.76;80.99;101736.22;5036590;27;45361;-67
2023/05/14 03:52:07;;;;;;;;;58.67;44.00;;;;;12.72;81.54;101727.44;5036659;28;45659;-67
2023/05/14 03:54:32;;;;;;;;;55.67;43.67;;;;;12.81;81.40;101737.00;5036733;28;45291;-66
2023/05/14 03:56:58;;;;;;;;;57.33;45.00;;;;;12.79;81.18;101736.16;5036405;28;45485;-66
2023/05/14 03:59:23;;;;;;;;;57.33;46.00;;;;;12.75;81.73;101730.06;5036466;27;45363;-67
2023/05/14 04:01:49;;;;;;;;;55.67;44.00;;;;;12.76;81.77;101717.72;5036433;28;45397;-67
2023/05/14 04:04:14;;;;;;;;;57.00;43.00;;;;;12.45;81.41;101662.75;5036603;28;45313;-67
2023/05/14 04:06:40;;;;;;;;;57.67;44.33;;;;;12.77;81.56;101717.69;5036189;28;46138;-66
2023/05/14 04:09:05;;;;;;;;;53.33;44.00;;;;;12.84;81.57;101726.41;5036148;28;45350;-67
2023/05/14 04:11:30;;;;;;;;;51.33;41.67;;;;;12.87;81.01;101723.72;5035683;28;45334;-66
2023/05/14 04:13:56;;;;;;;;;54.00;42.33;;;;;12.79;81.10;101713.25;5036603;28;45361;-67
2023/05/14 04:16:21;;;;;;;;;56.67;45.00;;;;;12.81;81.51;101721.16;5035870;27;46585;-67
2023/05/14 04:18:46;;;;;;;;;57.00;45.33;;;;;12.84;81.36;101721.97;5036176;28;45228;-67
2023/05/14 04:21:12;;;;;;;;;57.00;44.33;;;;;12.85;81.32;101736.94;5036163;28;45512;-67
2023/05/14 04:23:37;;;;;;;;;57.33;45.00;;;;;12.75;81.51;101715.97;5036338;28;45647;-66
2023/05/14 04:26:03;;;;;;;;;60.00;46.00;;;;;12.82;81.48;101729.09;5036166;27;45417;-67
2023/05/14 04:28:29;;;;;;;;;53.67;42.33;;;;;12.70;81.51;101708.97;5036054;27;45440;-67
2023/05/14 04:30:54;;;;;;;;;56.33;44.00;;;;;12.77;81.71;101730.91;5036166;28;45307;-66
2023/05/14 04:33:19;;;;;;;;;52.33;41.67;;;;;12.71;81.04;101726.59;5036059;28;45317;-66
2023/05/14 04:35:45;;;;;;;;;28.33;28.33;;;;;12.76;80.89;101747.66;5035899;28;46325;-66
2023/05/14 04:38:12;;;;;;;;;53.33;42.00;;;;;12.66;81.03;101736.38;5036178;27;45393;-66
2023/05/14 04:40:38;;;;;;;;;55.67;42.00;;;;;12.64;81.80;101727.59;5036129;27;45452;-67
2023/05/14 04:43:03;;;;;;;;;53.33;42.00;;;;;12.66;81.80;101739.03;5036100;28;45296;-67
2023/05/14 04:45:29;;;;;;;;;41.00;33.67;;;;;12.66;81.16;101752.22;5035408;27;46405;-67
2023/05/14 04:47:54;;;;;;;;;50.33;41.33;;;;;12.66;81.20;101756.63;5035429;28;45417;-67
2023/05/14 04:50:20;;;;;;;;;53.67;42.00;;;;;12.54;81.32;101747.97;5034991;27;45653;-66
2023/05/14 04:52:45;;;;;;;;;48.33;40.33;;;;;12.24;82.21;101700.88;5035895;28;45492;-67
2023/05/14 04:55:10;;;;;;;;;52.67;40.67;;;;;12.53;82.13;101754.19;5035726;28;45481;-67
2023/05/14 04:57:36;;;;;;;;;58.00;40.00;;;;;12.52;81.76;101756.84;5035556;27;45402;-66
2023/05/14 05:00:04;;;;;;;;;55.67;43.67;;;;;12.51;82.05;101752.44;5035882;28;45798;-66
2023/05/14 05:02:29;;;;;;;;;51.33;40.67;;;;;12.44;82.33;101738.44;5035720;28;45402;-66
2023/05/14 05:04:55;;;;;;;;;56.67;43.00;;;;;12.50;81.75;101754.22;5035336;28;46005;-66
2023/05/14 05:07:20;;;;;;;;;52.00;41.67;;;;;12.41;81.68;101740.28;5035738;28;45266;-66
2023/05/14 05:09:45;;;;;;;;;55.33;42.67;;;;;12.48;82.48;101755.13;5035460;28;45174;-66
2023/05/14 05:12:11;;;;;;;;;62.67;49.33;;;;;12.47;82.73;101751.59;5035693;28;45370;-67
2023/05/14 05:14:36;;;;;;;;;55.33;44.00;;;;;12.46;82.74;101751.63;5034654;28;45528;-67
2023/05/14 05:17:01;;;;;;;;;57.00;44.00;;;;;12.44;82.15;101751.66;5035179;28;45361;-67
2023/05/14 05:19:27;;;;;;;;;57.00;44.67;;;;;12.46;83.30;101757.81;5035559;28;45334;-67
2023/05/14 05:21:52;;;;;;;;;52.67;43.33;;;;;12.46;82.13;101746.34;5034360;28;45357;-66
2023/05/14 05:24:17;;;;;;;;;58.33;44.33;;;;;12.48;82.19;101752.50;5035200;28;46662;-66
2023/05/14 05:26:43;;;;;;;;;61.00;47.00;;;;;12.43;82.32;101749.94;5035470;28;45316;-67
2023/05/14 05:29:08;;;;;;;;;55.67;45.00;;;;;12.52;82.45;101748.91;5035236;28;45322;-66
2023/05/14 05:31:34;;;;;;;;;56.33;45.00;;;;;12.52;82.48;101757.72;5035606;28;45339;-67
2023/05/14 05:34:00;;;;;;;;;51.67;43.67;;;;;12.59;82.75;101747.94;5035788;27;45307;-67
2023/05/14 05:36:26;;;;;;;;;52.67;41.67;;;;;12.63;82.68;101757.53;5035073;28;45467;-67
2023/05/14 05:38:51;;;;;;;;;57.00;43.33;;;;;12.54;82.01;101733.91;5035292;28;45318;-67
2023/05/14 05:41:16;;;;;;;;;52.33;40.00;;;;;12.68;81.64;101760.13;5035363;28;45295;-66
2023/05/14 05:43:42;;;;;;;;;55.67;44.33;;;;;12.66;82.17;101748.69;5035029;28;45413;-66
2023/05/14 05:46:07;;;;;;;;;57.00;44.33;;;;;12.73;81.38;101755.63;5034939;28;45384;-66
2023/05/14 05:48:32;;;;;;;;;53.00;41.00;;;;;12.67;81.33;101756.59;5034814;28;45319;-66
2023/05/14 05:50:58;;;;;;;;;47.00;35.33;;;;;12.75;81.60;101761.78;5035537;28;45301;-66
2023/05/14 05:53:23;;;;;;;;;49.67;39.00;;;;;12.71;81.13;101762.72;5034886;28;46689;-66
2023/05/14 05:55:50;;;;;;;;;49.33;40.33;;;;;12.70;81.26;101763.63;5035058;28;45271;-66
2023/05/14 05:58:19;;;;;;;;;49.33;39.33;;;;;12.65;81.55;101765.44;5034999;28;45639;-66
2023/05/14 06:00:45;;;;;;;;;48.00;39.33;;;;;12.66;81.48;101767.19;5035002;28;45549;-67
2023/05/14 06:03:12;;;;;;;;;46.33;38.67;;;;;12.60;81.35;101752.31;5034701;28;46161;-66
2023/05/14 06:05:37;;;;;;;;;48.00;39.00;;;;;12.56;81.37;101747.94;5034734;28;45228;-66
2023/05/14 06:08:03;;;;;;;;;51.00;40.33;;;;;12.62;81.84;101754.91;5034775;28;45397;-66
2023/05/14 06:10:28;;;;;;;;;56.00;40.00;;;;;12.77;81.40;101777.63;5034986;27;45924;-67
2023/05/14 06:12:54;;;;;;;;;47.33;38.33;;;;;12.78;81.11;101774.94;5034610;28;46496;-66
2023/05/14 06:15:19;;;;;;;;;51.33;40.33;;;;;12.70;80.86;101764.47;5034968;28;45176;-67
2023/05/14 06:17:45;;;;;;;;;51.67;39.67;;;;;12.79;81.37;101786.38;5034647;28;45311;-67
2023/05/14 06:20:11;;;;;;;;;53.67;41.67;;;;;12.79;80.76;101773.16;5034854;28;45471;-67
2023/05/14 06:22:36;;;;;;;;;51.33;41.67;;;;;12.75;80.37;101760.91;5034549;28;45414;-67
2023/05/14 06:25:02;;;;;;;;;48.67;39.33;;;;;12.78;80.88;101758.19;5034419;28;45401;-67
2023/05/14 06:27:27;;;;;;;;;52.67;42.00;;;;;12.79;81.00;101749.38;5034879;28;45320;-67
2023/05/14 06:29:53;;;;;;;;;42.00;35.33;;;;;12.92;80.79;101773.84;5034674;28;45410;-67
2023/05/14 06:32:18;;;;;;;;;51.00;40.67;;;;;12.88;80.16;101759.78;5034322;28;46539;-66
2023/05/14 06:34:43;;;;;;;;;51.67;41.67;;;;;12.88;79.77;101758.03;5033607;28;45349;-66
2023/05/14 06:37:09;;;;;;;;;52.33;43.33;;;;;12.75;79.86;101732.72;5034532;28;45299;-66
2023/05/14 06:39:35;;;;;;;;;53.33;41.33;;;;;12.92;79.67;101758.00;5034732;28;45295;-67
2023/05/14 06:42:01;;;;;;;;;55.00;43.33;;;;;13.00;80.25;101769.31;5034194;28;45331;-66
2023/05/14 06:44:27;;;;;;;;;54.67;44.33;;;;;12.99;80.52;101775.50;5034167;28;45809;-66
2023/05/14 06:46:52;;;;;;;;;56.00;42.00;;;;;13.05;80.33;101770.97;5034071;28;45178;-67
2023/05/14 06:49:18;;;;;;;;;51.33;41.00;;;;;13.11;80.10;101763.84;5034197;28;45292;-66
2023/05/14 06:51:44;;;;;;;;;57.33;45.00;;;;;13.14;79.21;101763.78;5034326;28;46267;-66
2023/05/14 06:54:10;;;;;;;;;30.33;23.67;;;;;13.09;79.58;101761.22;5034169;28;45215;-66
2023/05/14 06:56:35;;;;;;;;;53.67;44.00;;;;;13.07;79.90;101745.38;5033998;28;45434;-67
2023/05/14 06:59:01;;;;;;;;;54.00;45.00;;;;;13.15;79.75;101754.97;5034424;28;45405;-66
2023/05/14 07:01:26;;;;;;;;;54.33;41.00;;;;;13.12;79.32;101747.09;5033864;28;45346;-66
2023/05/14 07:03:51;;;;;;;;;51.67;42.00;;;;;13.20;80.05;101753.09;5033765;28;45444;-66
2023/05/14 07:06:17;;;;;;;;;50.00;40.00;;;;;13.27;79.21;101751.22;5034049;28;45368;-67
2023/05/14 07:08:44;;;;;;;;;48.67;40.33;;;;;13.32;78.84;101766.13;5034109;28;45361;-67
2023/05/14 07:11:10;;;;;;;;;45.33;37.33;;;;;13.13;78.39;101725.91;5033576;28;46376;-66
2023/05/14 07:13:35;;;;;;;;;47.67;40.00;;;;;13.29;78.39;101758.25;5033679;28;45349;-67
2023/05/14 07:16:00;;;;;;;;;46.33;40.00;;;;;13.28;78.44;101756.50;5034010;28;45678;-67
2023/05/14 07:18:26;;;;;;;;;47.00;35.67;;;;;13.36;78.06;101759.91;5033864;28;45409;-67
2023/05/14 07:20:51;;;;;;;;;49.33;38.33;;;;;13.45;78.20;101764.16;5033644;28;46614;-67
2023/05/14 07:23:16;;;;;;;;;46.67;36.00;;;;;13.45;77.26;101764.16;5033662;28;45325;-67
2023/05/14 07:25:42;;;;;;;;;43.00;36.33;;;;;13.40;77.63;101758.97;5033801;28;46310;-67
2023/05/14 07:28:07;;;;;;;;;44.33;35.33;;;;;13.34;77.20;101750.22;5033892;28;45410;-67
2023/05/14 07:30:32;;;;;;;;;48.67;38.67;;;;;13.30;77.37;101752.06;5033501;28;46407;-67
2023/05/14 07:32:58;;;;;;;;;43.00;35.00;;;;;13.32;77.73;101762.63;5033618;28;45258;-67
2023/05/14 07:35:23;;;;;;;;;42.00;35.00;;;;;13.36;77.48;101772.25;5033454;28;45467;-66
2023/05/14 07:37:48;;;;;;;;;44.00;35.67;;;;;13.39;77.55;101780.16;5033673;28;45335;-66
2023/05/14 07:40:14;;;;;;;;;50.67;38.00;;;;;13.30;76.93;101756.47;5033456;28;45519;-66
2023/05/14 07:42:39;;;;;;;;;45.67;38.00;;;;;13.39;77.01;101773.09;5033242;28;45270;-67
2023/05/14 07:45:05;;;;;;;;;48.67;38.33;;;;;13.36;77.18;101761.66;5034095;28;45213;-66
2023/05/14 07:47:31;;;;;;;;;51.00;39.33;;;;;13.50;77.06;101779.94;5036829;28;45414;-66
2023/05/14 07:49:56;;;;;;;;;49.33;38.67;;;;;13.55;77.08;101776.31;5035088;28;45593;-67
2023/05/14 07:52:22;;;;;;;;;46.33;37.33;;;;;13.57;76.37;101768.34;5036371;28;45279;-67
2023/05/14 07:54:50;;;;;;;;;46.67;37.33;;;;;13.59;76.20;101774.47;5036344;28;45388;-66
2023/05/14 07:57:15;;;;;;;;;47.33;39.33;;;;;13.66;76.36;101770.81;5036641;28;45293;-67
2023/05/14 07:59:41;;;;;;;;;49.67;39.00;;;;;13.67;75.55;101769.91;5036194;28;46179;-67
2023/05/14 08:02:08;;;;;;;;;47.00;39.67;;;;;13.75;75.29;101767.09;5036313;28;45406;-67
2023/05/14 08:04:34;;;;;;;;;46.33;40.00;;;;;13.89;75.43;101774.78;5036556;28;45471;-67
2023/05/14 08:07:00;;;;;;;;;50.00;39.33;;;;;13.92;74.91;101765.00;5036498;28;45220;-67
2023/05/14 08:09:25;;;;;;;;;48.67;40.33;;;;;13.99;74.83;101763.09;5036150;28;45264;-67
2023/05/14 08:11:50;;;;;;;;;45.67;39.00;;;;;14.08;74.58;101772.63;5036111;28;45315;-67
2023/05/14 08:14:16;;;;;;;;;50.00;39.67;;;;;14.10;74.41;101754.91;5036227;28;45383;-67
2023/05/14 08:16:41;;;;;;;;;49.67;40.67;;;;;14.13;73.86;101760.19;5036580;28;45211;-67
2023/05/14 08:19:06;;;;;;;;;53.00;41.33;;;;;14.26;73.60;101769.59;5035863;28;46314;-66
2023/05/14 08:21:32;;;;;;;;;56.67;45.00;;;;;14.34;72.91;101771.22;5036194;28;45341;-67
2023/05/14 08:23:57;;;;;;;;;51.00;42.00;;;;;14.39;72.97;101754.31;5036138;28;45551;-67
2023/05/14 08:26:23;;;;;;;;;47.00;39.00;;;;;14.56;72.25;101761.00;5036272;28;45294;-67
2023/05/14 08:28:48;;;;;;;;;51.33;38.67;;;;;14.66;72.05;101764.34;5036019;28;46478;-67
2023/05/14 08:31:14;;;;;;;;;50.00;42.00;;;;;14.74;71.63;101757.06;5035863;28;45394;-67
2023/05/14 08:33:40;;;;;;;;;55.00;43.33;;;;;14.82;71.61;101770.16;5036247;28;45372;-67
2023/05/14 08:36:06;;;;;;;;;51.67;41.67;;;;;14.85;71.32;101747.06;5035935;28;45472;-67
2023/05/14 08:38:32;;;;;;;;;57.00;42.00;;;;;15.01;70.62;101752.00;5035560;28;46325;-66
2023/05/14 08:40:58;;;;;;;;;54.00;40.33;;;;;15.08;69.57;101738.53;5035927;28;45449;-67
2023/05/14 08:43:36;;;;;;;;;52.00;41.00;;;;;15.31;70.34;101745.91;5035781;28;45254;-67
2023/05/14 08:46:05;;;;;;;;;53.00;42.33;;;;;15.48;69.15;101745.47;5035717;28;45417;-67
2023/05/14 08:48:32;;;;;;;;;53.00;41.67;;;;;15.65;68.83;101750.31;5035547;28;45998;-67
2023/05/14 08:50:58;;;;;;;;;51.33;41.67;;;;;15.83;68.87;101748.09;5034399;28;45455;-67
2023/05/14 08:53:24;;;;;;;;;51.67;43.33;;;;;15.89;67.42;101749.66;5035878;28;45392;-66
2023/05/14 08:55:50;;;;;;;;;56.67;45.33;;;;;15.98;67.58;101755.59;5035698;28;45206;-66
2023/05/14 08:58:16;;;;;;;;;59.33;46.00;;;;;16.01;66.95;101744.88;5035561;28;46366;-67
2023/05/14 09:00:41;;;;;;;;;57.33;46.00;;;;;16.21;67.38;101747.84;5035378;28;45226;-67
2023/05/14 09:03:08;;;;;;;;;59.00;47.00;;;;;16.40;66.40;101746.38;5035774;28;45275;-66
2023/05/14 09:05:34;;;;;;;;;59.33;46.67;;;;;16.46;64.93;101737.34;5035854;28;45328;-67
2023/05/14 09:07:59;;;;;;;;;59.33;46.33;;;;;16.65;65.15;101741.13;5035197;28;45926;-67
2023/05/14 09:10:25;;;;;;;;;53.00;41.33;;;;;16.84;64.69;101748.53;5035325;28;45271;-66
2023/05/14 09:12:50;;;;;;;;;54.33;43.67;;;;;16.92;63.46;101751.84;5035632;28;45324;-67
2023/05/14 09:15:16;;;;;;;;;58.67;45.33;;;;;17.01;63.08;101740.03;5035805;28;45437;-67
2023/05/14 09:17:43;;;;;;;;;52.33;43.00;;;;;17.19;62.91;101742.06;5035453;28;45373;-67
2023/05/14 09:20:11;;;;;;;;;54.00;42.67;;;;;17.32;62.27;101725.66;5035011;28;45337;-67
2023/05/14 09:22:37;;;;;;;;;53.67;43.67;;;;;17.61;60.47;101735.25;5035260;28;45392;-67
2023/05/14 09:25:04;;;;;;;;;52.67;42.67;;;;;17.77;62.16;101740.03;5035536;28;45473;-66
2023/05/14 09:27:31;;;;;;;;;55.33;40.67;;;;;17.85;61.19;101732.63;5035020;28;47420;-67
2023/05/14 09:30:04;;;;;;;;;44.67;38.67;;;;;17.97;60.90;101699.34;5033964;28;45494;-67
2023/05/14 09:32:35;;;;;;;;;51.00;41.00;;;;;18.39;60.38;101734.09;5035188;27;45404;-67
2023/05/14 09:35:12;;;;;;;;;45.33;38.00;;;;;18.79;58.91;101728.94;5035192;28;45479;-67
2023/05/14 09:37:40;;;;;;;;;51.67;39.00;;;;;19.08;57.80;101721.53;5034892;28;46215;-66
2023/05/14 09:40:08;;;;;;;;;46.00;39.00;;;;;19.63;58.27;101726.25;5035020;28;45537;-67
2023/05/14 09:42:33;;;;;;;;;49.33;38.33;;;;;20.06;56.03;101721.63;5035039;28;45475;-67
2023/05/14 09:44:58;;;;;;;;;50.67;39.67;;;;;20.78;55.54;101719.97;5035034;27;45370;-67
2023/05/14 09:47:24;;;;;;;;;48.33;37.00;;;;;22.34;52.98;101725.13;5035047;28;45227;-73
2023/05/14 09:49:49;;;;;;;;;51.33;40.67;;;;;23.22;51.27;101711.97;5034884;28;45162;-70
2023/05/14 09:52:17;;;;;;;;;52.33;41.00;;;;;24.63;47.76;101728.22;5035187;28;45388;-70
2023/05/14 09:54:45;;;;;;;;;50.33;39.00;;;;;25.62;44.31;101699.91;5033978;28;45381;-70
2023/05/14 09:57:10;;;;;;;;;45.33;37.00;;;;;26.56;43.97;101701.16;5029605;28;47142;-70
2023/05/14 09:59:35;;;;;;;;;46.67;37.33;;;;;27.82;42.75;101707.72;5034721;28;45408;-69
2023/05/14 10:02:04;;;;;;;;;46.33;37.00;;;;;28.94;41.68;101706.53;5035008;28;45674;-68
2023/05/14 10:04:32;;;;;;;;;40.33;34.67;;;;;30.02;36.61;101696.28;5033789;28;45435;-68
2023/05/14 10:06:59;;;;;;;;;41.00;34.67;;;;;30.98;37.49;101703.75;5034552;28;46274;-68
2023/05/14 10:09:28;;;;;;;;;48.00;39.33;;;;;31.86;37.31;101703.50;5033657;28;45483;-67
2023/05/14 10:11:59;;;;;;;;;42.33;34.33;;;;;32.51;36.29;101700.66;5040728;28;46570;-68
2023/05/14 10:14:46;;;;;;;;;35.00;32.33;;;;;32.93;35.59;101697.28;5047265;28;45432;-69
2023/05/14 10:17:17;;;;;;;;;37.67;33.00;;;;;33.36;31.25;101688.38;5047594;28;45446;-70
2023/05/14 10:19:51;;;;;;;;;37.00;32.33;;;;;33.66;33.96;101690.59;5030892;27;45785;-68
2023/05/14 10:22:21;;;;;;;;;41.33;33.67;;;;;33.93;30.69;101685.09;5033445;28;45231;-68
2023/05/14 10:24:49;;;;;;;;;35.33;32.67;;;;;34.18;30.59;101678.63;5033786;28;45467;-69
2023/05/14 10:27:16;;;;;;;;;40.67;34.33;;;;;34.53;30.52;101687.59;5032267;28;45408;-69
2023/05/14 10:29:52;;;;;;;;;43.00;36.00;;;;;34.66;33.18;101670.66;5016423;28;45401;-69
2023/05/14 10:32:19;;;;;;;;;44.75;36.25;;;;;34.90;29.24;101674.44;5034257;28;45459;-69
2023/05/14 10:34:45;;;;;;;;;46.00;38.25;;;;;34.87;28.44;101669.28;5034423;28;45405;-69
2023/05/14 10:37:14;;;;;;;;;36.67;32.67;;;;;34.97;28.09;101669.13;5031729;28;45468;-69
2023/05/14 10:39:48;;;;;;;;;36.50;32.75;;;;;35.17;29.07;101659.47;5038923;28;45474;-69
2023/05/14 10:42:18;;;;;;;;;43.50;36.00;;;;;35.43;29.23;101654.81;5054196;28;45371;-68
2023/05/14 10:44:54;;;;;;;;;35.67;31.33;;;;;35.19;27.74;101635.53;5036014;28;45501;-69
2023/05/14 10:47:20;;;;;;;;;35.33;30.67;;;;;35.22;26.74;101657.09;5043270;28;45382;-70
2023/05/14 10:49:49;;;;;;;;;37.00;32.00;;;;;34.98;27.18;101640.72;5032015;28;45489;-70
2023/05/14 10:52:19;;;;;;;;;34.25;31.25;;;;;34.45;27.00;101640.22;5034019;28;45271;-71
2023/05/14 10:54:52;;;;;;;;;33.33;30.00;;;;;33.58;28.31;101633.19;5034386;27;45602;-70
2023/05/14 10:57:19;;;;;;;;;35.67;32.00;;;;;32.87;28.95;101629.72;5034030;28;45434;-69
2023/05/14 10:59:52;;;;;;;;;33.00;29.00;;;;;32.13;29.48;101647.31;5032780;28;45484;-70
2023/05/14 11:02:26;;;;;;;;;37.33;30.33;;;;;31.05;30.19;101640.50;5033028;28;45428;-69
2023/05/14 11:04:55;;;;;;;;;35.67;30.00;;;;;30.07;31.05;101620.66;5034234;28;45265;-70
2023/05/14 11:07:27;;;;;;;;;33.00;28.67;;;;;29.23;31.90;101650.78;5033573;28;46510;-70